Time;durP1;ratioP1;P1;durP2;ratioP2;P2;SDS_P1;SDS_P2;PMS_P1;PMS_P2;Temp;Humidity;BMP_temperature;BMP_pressure;BME280_temperature;BME280_humidity;BME280_pressure;Samples;Min_cycle;Max_cycle;Signal;HPM_P1;HPM_P2
2022/07/04 00:00:09;;;;;;;1.92;0.70;;;14.00;99.90;;;;;;5036434;28;20049;-72
2022/07/04 00:02:39;;;;;;;0.47;0.47;;;13.90;99.90;;;;;;5036441;28;20365;-73
2022/07/04 00:05:10;;;;;;;0.32;0.30;;;13.80;99.90;;;;;;5033891;28;20032;-66
2022/07/04 00:07:38;;;;;;;3.30;0.47;;;13.70;99.90;;;;;;5037239;28;20401;-63
2022/07/04 00:10:10;;;;;;;0.65;0.30;;;13.70;99.90;;;;;;5039062;28;20029;-72
2022/07/04 00:12:37;;;;;;;0.83;0.30;;;13.50;99.90;;;;;;5041467;28;20071;-71
2022/07/04 00:15:06;;;;;;;1.10;0.50;;;13.50;99.90;;;;;;5040843;28;20368;-71
2022/07/04 00:17:33;;;;;;;1.33;0.65;;;13.40;99.90;;;;;;5040789;28;20585;-71
2022/07/04 00:20:01;;;;;;;1.25;0.95;;;13.30;99.90;;;;;;5040079;28;20368;-62
2022/07/04 00:22:28;;;;;;;0.30;0.30;;;13.30;99.90;;;;;;5040392;28;20032;-64
2022/07/04 00:24:55;;;;;;;0.90;0.20;;;13.20;99.90;;;;;;5042103;28;20032;-62
2022/07/04 00:27:22;;;;;;;1.55;0.30;;;13.10;99.90;;;;;;5040048;28;20120;-64
2022/07/04 00:29:50;;;;;;;0.63;0.38;;;13.10;99.90;;;;;;5041615;28;20045;-62
2022/07/04 00:32:17;;;;;;;0.68;0.40;;;13.10;99.90;;;;;;5039808;28;20025;-65
2022/07/04 00:34:45;;;;;;;1.95;0.70;;;13.10;99.90;;;;;;5039328;28;20095;-62
2022/07/04 00:37:12;;;;;;;0.63;0.40;;;13.20;99.90;;;;;;5039698;28;20029;-63
2022/07/04 00:39:39;;;;;;;1.38;0.80;;;13.30;99.90;;;;;;5039345;28;20275;-62
2022/07/04 00:42:07;;;;;;;1.23;0.82;;;13.30;99.90;;;;;;5039074;28;20127;-71
2022/07/04 00:44:37;;;;;;;1.15;0.40;;;13.40;99.90;;;;;;5039323;28;20422;-70
2022/07/04 00:47:05;;;;;;;0.93;0.68;;;13.40;99.90;;;;;;5039910;28;20059;-71
2022/07/04 00:49:32;;;;;;;0.55;0.40;;;13.30;99.90;;;;;;5039959;28;20223;-62
2022/07/04 00:52:00;;;;;;;1.88;0.43;;;13.30;99.90;;;;;;5038178;28;20662;-64
2022/07/04 00:54:32;;;;;;;1.10;0.50;;;13.30;99.90;;;;;;5038867;28;20068;-68
2022/07/04 00:57:00;;;;;;;0.80;0.47;;;13.30;99.90;;;;;;5037665;28;20021;-64
2022/07/04 00:59:28;;;;;;;0.93;0.38;;;13.30;99.90;;;;;;5039775;28;20480;-73
2022/07/04 01:01:56;;;;;;;0.98;0.50;;;13.30;99.90;;;;;;5039298;28;20461;-64
2022/07/04 01:04:24;;;;;;;0.30;0.30;;;13.40;99.90;;;;;;5037904;28;20052;-68
2022/07/04 01:06:52;;;;;;;0.38;0.38;;;13.40;99.90;;;;;;5039207;28;20029;-63
2022/07/04 01:09:19;;;;;;;0.60;0.45;;;13.40;99.90;;;;;;5039325;28;20021;-68
2022/07/04 01:11:48;;;;;;;0.47;0.40;;;13.40;99.90;;;;;;5037838;28;20131;-63
2022/07/04 01:14:15;;;;;;;0.20;0.20;;;13.40;99.90;;;;;;5040514;28;20040;-63
2022/07/04 01:16:43;;;;;;;0.65;0.57;;;13.50;99.90;;;;;;5039077;28;20037;-70
2022/07/04 01:19:10;;;;;;;2.95;0.40;;;13.50;99.90;;;;;;5038971;28;20373;-69
2022/07/04 01:21:37;;;;;;;0.80;0.40;;;13.50;99.90;;;;;;5038895;28;20097;-67
2022/07/04 01:24:04;;;;;;;0.60;0.60;;;13.60;99.90;;;;;;5039506;28;20025;-64
2022/07/04 01:26:31;;;;;;;0.55;0.22;;;13.70;99.90;;;;;;5038335;28;20033;-73
2022/07/04 01:28:59;;;;;;;0.55;0.40;;;13.60;99.90;;;;;;5039272;28;20079;-65
2022/07/04 01:31:26;;;;;;;1.08;0.30;;;13.60;99.90;;;;;;5038662;28;20049;-68
2022/07/04 01:33:53;;;;;;;0.20;0.20;;;13.60;99.90;;;;;;5039523;28;20559;-73
2022/07/04 01:36:20;;;;;;;0.55;0.40;;;13.60;99.90;;;;;;5039028;28;20032;-63
2022/07/04 01:38:47;;;;;;;0.30;0.20;;;13.60;99.90;;;;;;5038549;28;20636;-68
2022/07/04 01:41:14;;;;;;;2.00;0.57;;;13.70;99.90;;;;;;5039310;28;20358;-65
2022/07/04 01:43:41;;;;;;;0.30;0.30;;;13.70;99.90;;;;;;5038794;28;20025;-63
2022/07/04 01:46:08;;;;;;;0.80;0.40;;;13.80;99.90;;;;;;5038611;28;20499;-64
2022/07/04 01:48:35;;;;;;;2.00;0.80;;;13.70;99.90;;;;;;5038566;28;20078;-68
2022/07/04 01:51:02;;;;;;;0.95;0.47;;;13.70;99.90;;;;;;5037917;28;20106;-65
2022/07/04 01:53:30;;;;;;;0.60;0.60;;;13.70;99.90;;;;;;5038546;28;20025;-69
2022/07/04 01:55:57;;;;;;;1.20;0.40;;;13.70;99.90;;;;;;5038265;28;20079;-70
2022/07/04 01:58:24;;;;;;;0.32;0.20;;;13.70;99.90;;;;;;5038667;28;20025;-65
2022/07/04 02:03:37;;;;;;;0.30;0.20;;;13.70;99.90;;;;;;5037165;28;20244;-67
2022/07/04 02:06:04;;;;;;;0.30;0.30;;;13.70;99.90;;;;;;5039755;28;20103;-71
2022/07/04 02:09:14;;;;;;;0.40;0.40;;;13.70;99.90;;;;;;5039979;28;20036;-69
2022/07/04 02:11:18;;;;;;;0.55;0.30;;;13.80;99.90;;;;;;5038332;28;20040;-66
2022/07/04 02:13:46;;;;;;;0.77;0.30;;;13.90;99.90;;;;;;5039001;28;20036;-67
2022/07/04 02:16:13;;;;;;;0.35;0.35;;;14.00;99.90;;;;;;5038437;28;20373;-68
2022/07/04 02:18:40;;;;;;;0.50;0.30;;;14.00;99.90;;;;;;5037944;28;20458;-68
2022/07/04 02:21:08;;;;;;;0.85;0.40;;;14.10;99.90;;;;;;5038012;28;20094;-72
2022/07/04 02:23:35;;;;;;;1.17;0.30;;;14.20;99.90;;;;;;5038542;28;20051;-74
2022/07/04 02:26:02;;;;;;;0.80;0.35;;;14.20;99.90;;;;;;5038088;28;20072;-66
2022/07/04 02:28:29;;;;;;;3.03;0.80;;;14.20;99.90;;;;;;5036208;28;20029;-70
2022/07/04 02:30:56;;;;;;;1.25;0.52;;;14.20;99.90;;;;;;5038421;28;20045;-69
2022/07/04 02:33:23;;;;;;;1.52;0.43;;;14.20;99.90;;;;;;5037148;28;20021;-71
2022/07/04 02:35:50;;;;;;;2.33;0.30;;;14.20;99.90;;;;;;5039786;28;20866;-66
2022/07/04 02:38:17;;;;;;;0.55;0.55;;;14.20;99.90;;;;;;5037743;28;20033;-74
2022/07/04 02:40:45;;;;;;;3.85;1.38;;;14.20;99.90;;;;;;5020408;28;20031;-66
2022/07/04 02:43:12;;;;;;;1.10;0.85;;;14.10;99.90;;;;;;5038576;28;20082;-66
2022/07/04 02:45:39;;;;;;;3.00;1.00;;;14.10;99.90;;;;;;5037940;28;20446;-66
2022/07/04 02:48:06;;;;;;;1.10;1.00;;;14.20;99.90;;;;;;5037676;28;20040;-74
2022/07/04 02:50:33;;;;;;;2.40;1.60;;;14.20;99.90;;;;;;5020977;28;20115;-65
2022/07/04 02:53:00;;;;;;;2.10;1.90;;;14.30;99.90;;;;;;5037082;28;20056;-72
2022/07/04 02:55:27;;;;;;;1.92;1.40;;;14.30;99.90;;;;;;5019949;28;20036;-65
2022/07/04 02:57:54;;;;;;;0.63;0.63;;;14.30;99.90;;;;;;5036932;28;20036;-67
2022/07/04 03:00:21;;;;;;;0.85;0.50;;;14.30;99.90;;;;;;5038328;28;20879;-66
2022/07/04 03:02:49;;;;;;;0.73;0.60;;;14.20;99.90;;;;;;5037617;28;20024;-68
2022/07/04 03:05:16;;;;;;;1.73;0.43;;;14.30;99.90;;;;;;5017919;28;20466;-73
2022/07/04 03:07:43;;;;;;;0.73;0.40;;;14.30;99.90;;;;;;5036238;28;20458;-70
2022/07/04 03:10:10;;;;;;;0.88;0.47;;;14.40;99.90;;;;;;5036767;28;20036;-72
2022/07/04 03:12:37;;;;;;;0.30;0.30;;;14.50;99.90;;;;;;5036280;28;20037;-73
2022/07/04 03:15:05;;;;;;;1.90;0.47;;;14.50;99.90;;;;;;5037061;28;20028;-71
2022/07/04 03:17:32;;;;;;;0.85;0.50;;;14.50;99.90;;;;;;5035270;28;20581;-65
2022/07/04 03:20:00;;;;;;;0.57;0.57;;;14.50;99.90;;;;;;5030772;28;20110;-67
2022/07/04 03:22:27;;;;;;;0.55;0.45;;;14.50;99.90;;;;;;5035041;28;20848;-66
2022/07/04 03:24:54;;;;;;;1.30;1.20;;;14.60;99.90;;;;;;5035073;28;20786;-68
2022/07/04 03:27:21;;;;;;;2.75;2.13;;;14.80;99.90;;;;;;5034614;28;20078;-63
2022/07/04 03:29:49;;;;;;;2.85;1.10;;;14.90;99.90;;;;;;5032114;28;20137;-67
2022/07/04 03:32:16;;;;;;;2.50;0.63;;;14.90;99.90;;;;;;5033343;28;20487;-64
2022/07/04 03:34:43;;;;;;;0.85;0.57;;;14.90;99.90;;;;;;5016103;28;20040;-67
2022/07/04 03:37:10;;;;;;;1.30;0.73;;;14.90;99.90;;;;;;5034746;28;20025;-67
2022/07/04 03:39:37;;;;;;;1.45;0.93;;;15.00;99.90;;;;;;5033329;28;21434;-68
2022/07/04 03:42:04;;;;;;;1.23;0.80;;;14.90;99.90;;;;;;5034657;28;20058;-70
2022/07/04 03:44:31;;;;;;;1.30;0.70;;;14.90;99.90;;;;;;5031590;28;20059;-73
2022/07/04 03:46:59;;;;;;;3.85;2.13;;;14.90;99.90;;;;;;5034018;28;20032;-73
2022/07/04 03:49:26;;;;;;;4.82;3.88;;;15.00;99.90;;;;;;5032807;28;20112;-73
2022/07/04 03:51:53;;;;;;;4.35;3.95;;;15.00;99.90;;;;;;5033606;28;20117;-69
2022/07/04 03:54:20;;;;;;;7.43;6.50;;;15.00;99.90;;;;;;5033472;28;20216;-67
2022/07/04 03:56:47;;;;;;;5.13;3.40;;;14.90;99.90;;;;;;5033291;28;20087;-69
2022/07/04 03:59:15;;;;;;;1.75;1.25;;;14.90;99.90;;;;;;5032301;28;20029;-73
2022/07/04 04:01:42;;;;;;;1.75;1.10;;;14.90;99.90;;;;;;5033832;28;20047;-74
2022/07/04 04:06:55;;;;;;;1.88;0.90;;;15.00;99.90;;;;;;5033621;28;20075;-66
2022/07/04 04:09:24;;;;;;;1.13;0.80;;;14.80;99.90;;;;;;5033604;28;20110;-66
2022/07/04 04:11:52;;;;;;;1.92;0.93;;;14.80;99.90;;;;;;5034277;28;20778;-71
2022/07/04 04:14:19;;;;;;;2.28;1.10;;;14.80;99.90;;;;;;5032701;28;20109;-72
2022/07/04 04:16:46;;;;;;;2.90;1.15;;;14.80;99.90;;;;;;5031748;28;20028;-70
2022/07/04 04:19:14;;;;;;;1.95;0.50;;;14.70;99.90;;;;;;5032440;28;20491;-69
2022/07/04 04:21:41;;;;;;;1.35;0.98;;;14.70;99.90;;;;;;5032980;28;20085;-66
2022/07/04 04:24:08;;;;;;;2.75;1.10;;;14.70;99.90;;;;;;5034494;28;20032;-69
2022/07/04 04:26:36;;;;;;;1.60;1.13;;;14.60;99.90;;;;;;5033212;28;20399;-69
2022/07/04 04:29:03;;;;;;;2.30;1.05;;;14.60;99.90;;;;;;5032617;28;20539;-74
2022/07/04 04:31:33;;;;;;;4.07;0.60;;;14.60;99.90;;;;;;5033013;28;20929;-72
2022/07/04 04:34:00;;;;;;;1.60;0.68;;;14.50;99.90;;;;;;5033009;28;20395;-65
2022/07/04 04:36:27;;;;;;;0.85;0.80;;;14.40;99.90;;;;;;5033725;28;20025;-65
2022/07/04 04:38:54;;;;;;;2.95;1.20;;;14.40;99.90;;;;;;5015252;28;20395;-67
2022/07/04 04:41:22;;;;;;;1.00;0.90;;;14.30;99.90;;;;;;5035510;28;20418;-72
2022/07/04 04:43:49;;;;;;;1.65;0.60;;;14.30;99.90;;;;;;5035110;28;20033;-65
2022/07/04 04:46:16;;;;;;;0.63;0.47;;;14.20;99.90;;;;;;5036271;28;20111;-65
2022/07/04 04:48:43;;;;;;;2.63;0.85;;;14.20;99.90;;;;;;5035060;28;20021;-67
2022/07/04 04:51:10;;;;;;;0.98;0.82;;;14.20;99.90;;;;;;5035351;28;20036;-69
2022/07/04 04:53:37;;;;;;;1.98;1.35;;;14.20;99.90;;;;;;5034172;28;20029;-67
2022/07/04 04:56:05;;;;;;;1.58;0.75;;;14.20;99.90;;;;;;5035589;28;20079;-69
2022/07/04 04:58:32;;;;;;;0.80;0.52;;;14.20;99.90;;;;;;5039192;28;20020;-67
2022/07/04 05:00:59;;;;;;;0.52;0.30;;;14.20;99.90;;;;;;5038351;28;20052;-67
2022/07/04 05:03:26;;;;;;;0.43;0.30;;;14.10;99.90;;;;;;5040632;28;20043;-67
2022/07/04 05:05:53;;;;;;;0.95;0.40;;;14.10;99.90;;;;;;5039354;28;20021;-69
2022/07/04 05:08:20;;;;;;;1.20;0.50;;;14.10;99.90;;;;;;5039491;28;20020;-69
2022/07/04 05:10:47;;;;;;;0.65;0.47;;;14.10;99.90;;;;;;5039419;28;20040;-66
2022/07/04 05:13:14;;;;;;;0.98;0.40;;;14.10;99.90;;;;;;5039024;28;20021;-69
2022/07/04 05:15:42;;;;;;;1.92;0.90;;;14.10;99.90;;;;;;5038913;28;20056;-67
2022/07/04 05:18:09;;;;;;;0.77;0.40;;;14.00;99.90;;;;;;5039057;28;20025;-68
2022/07/04 05:20:36;;;;;;;0.52;0.40;;;14.00;99.90;;;;;;5039882;28;20017;-66
2022/07/04 05:23:03;;;;;;;0.88;0.50;;;14.00;99.90;;;;;;5039408;28;20029;-66
2022/07/04 05:25:30;;;;;;;0.77;0.40;;;14.00;99.90;;;;;;5039172;28;20194;-68
2022/07/04 05:27:57;;;;;;;0.93;0.40;;;14.00;99.90;;;;;;5038148;28;20037;-64
2022/07/04 05:30:24;;;;;;;0.50;0.50;;;13.90;99.90;;;;;;5083434;22;20052;-67
2022/07/04 05:32:51;;;;;;;1.33;0.40;;;13.90;99.90;;;;;;5059157;28;20452;-69
2022/07/04 05:35:18;;;;;;;0.73;0.40;;;13.90;99.90;;;;;;5056364;28;20063;-69
2022/07/04 05:37:45;;;;;;;0.63;0.43;;;13.90;99.90;;;;;;5054813;28;20098;-66
2022/07/04 05:40:13;;;;;;;0.82;0.50;;;13.90;99.90;;;;;;5053338;28;20557;-72
2022/07/04 05:42:40;;;;;;;0.85;0.50;;;13.90;99.90;;;;;;5056966;28;20024;-70
2022/07/04 05:45:07;;;;;;;1.20;0.47;;;13.90;99.90;;;;;;5054345;28;20024;-67
2022/07/04 05:47:35;;;;;;;4.82;2.47;;;13.80;99.90;;;;;;5054718;28;20620;-67
2022/07/04 05:50:02;;;;;;;2.33;1.65;;;13.80;99.90;;;;;;5057994;28;20037;-67
2022/07/04 05:52:29;;;;;;;2.13;1.40;;;13.80;99.90;;;;;;5056546;28;20108;-67
2022/07/04 05:54:56;;;;;;;2.40;0.60;;;13.80;99.90;;;;;;5040702;28;20448;-65
2022/07/04 05:57:23;;;;;;;1.88;0.52;;;13.80;99.90;;;;;;5055702;28;20098;-65
2022/07/04 05:59:50;;;;;;;0.50;0.50;;;13.80;99.90;;;;;;5057356;28;20097;-68
2022/07/04 06:02:18;;;;;;;2.35;0.50;;;13.80;99.90;;;;;;5055444;28;20793;-66
2022/07/04 06:04:45;;;;;;;1.88;0.68;;;13.70;99.90;;;;;;5055369;28;20016;-65
2022/07/04 06:07:12;;;;;;;0.40;0.30;;;13.80;99.90;;;;;;5057253;28;20500;-66
2022/07/04 06:09:39;;;;;;;1.73;0.85;;;13.70;99.90;;;;;;5055262;28;20020;-67
2022/07/04 06:12:06;;;;;;;1.45;0.60;;;13.70;99.90;;;;;;5053936;28;20032;-67
2022/07/04 06:14:34;;;;;;;1.10;0.55;;;13.70;99.90;;;;;;5058280;28;20597;-66
2022/07/04 06:17:01;;;;;;;0.63;0.60;;;13.70;99.90;;;;;;5053825;28;20153;-65
2022/07/04 06:19:28;;;;;;;0.73;0.50;;;13.70;99.90;;;;;;5055129;28;20077;-65
2022/07/04 06:21:55;;;;;;;1.50;0.85;;;13.70;99.90;;;;;;5057764;28;20029;-66
2022/07/04 06:24:22;;;;;;;1.30;1.00;;;13.70;99.90;;;;;;5055978;28;20027;-67
2022/07/04 06:26:52;;;;;;;1.05;0.90;;;13.70;99.90;;;;;;5054335;28;20403;-68
2022/07/04 06:29:20;;;;;;;2.60;1.60;;;13.70;99.90;;;;;;5056776;28;20418;-66
2022/07/04 06:31:47;;;;;;;2.25;1.55;;;13.70;99.90;;;;;;5053532;28;20041;-67
2022/07/04 06:37:00;;;;;;;3.95;2.05;;;13.70;99.90;;;;;;5056858;28;20043;-68
2022/07/04 06:39:27;;;;;;;3.55;2.03;;;13.70;99.90;;;;;;5052333;28;20036;-67
2022/07/04 06:41:54;;;;;;;4.60;3.58;;;13.70;99.90;;;;;;5054608;28;20036;-67
2022/07/04 06:44:22;;;;;;;4.38;3.97;;;13.70;99.90;;;;;;5053854;28;20024;-66
2022/07/04 06:46:50;;;;;;;3.78;3.03;;;13.70;99.90;;;;;;5053357;28;20430;-64
2022/07/04 06:49:18;;;;;;;1.33;0.70;;;13.70;99.90;;;;;;5054952;28;20363;-64
2022/07/04 06:51:45;;;;;;;1.00;0.60;;;13.60;99.90;;;;;;5053964;28;20400;-65
2022/07/04 06:54:12;;;;;;;1.08;0.63;;;13.60;99.90;;;;;;5054316;28;20557;-65
2022/07/04 06:56:39;;;;;;;1.10;0.60;;;13.60;99.90;;;;;;5055762;28;20062;-64
2022/07/04 06:59:06;;;;;;;1.45;0.30;;;13.60;99.90;;;;;;5055269;28;20013;-68
2022/07/04 07:01:33;;;;;;;0.50;0.50;;;13.50;99.90;;;;;;5052600;28;20524;-68
2022/07/04 07:04:00;;;;;;;0.73;0.60;;;13.50;99.90;;;;;;5054335;28;20064;-65
2022/07/04 07:06:27;;;;;;;1.80;0.50;;;13.50;99.90;;;;;;5056974;28;20402;-66
2022/07/04 07:08:54;;;;;;;0.95;0.70;;;13.50;99.90;;;;;;5049718;28;20064;-68
2022/07/04 07:11:22;;;;;;;0.98;0.60;;;13.50;99.90;;;;;;5051365;28;20035;-66
2022/07/04 07:13:53;;;;;;;1.75;0.75;;;13.50;99.90;;;;;;5054262;28;20533;-69
2022/07/04 07:16:22;;;;;;;2.42;0.70;;;13.50;99.90;;;;;;5054550;28;20036;-67
2022/07/04 07:18:49;;;;;;;0.85;0.50;;;13.60;99.90;;;;;;5055122;28;20696;-64
2022/07/04 07:21:16;;;;;;;3.45;0.73;;;13.60;99.90;;;;;;5054063;28;20028;-67
2022/07/04 07:23:43;;;;;;;1.95;0.77;;;13.50;99.90;;;;;;5056663;28;20917;-70
2022/07/04 07:26:12;;;;;;;1.75;0.77;;;13.50;99.90;;;;;;5054686;28;20020;-66
2022/07/04 07:28:39;;;;;;;3.35;0.93;;;13.40;99.90;;;;;;5051977;28;20073;-66
2022/07/04 07:31:06;;;;;;;2.00;0.80;;;13.30;99.90;;;;;;5054776;28;20061;-70
2022/07/04 07:33:33;;;;;;;1.67;0.40;;;13.20;99.90;;;;;;5055449;28;20029;-66
2022/07/04 07:36:00;;;;;;;0.60;0.47;;;13.10;99.90;;;;;;5053220;28;20091;-68
2022/07/04 07:38:27;;;;;;;0.47;0.40;;;13.10;99.90;;;;;;5058158;28;20024;-69
2022/07/04 07:40:55;;;;;;;0.75;0.32;;;13.10;99.90;;;;;;5034090;28;20037;-69
2022/07/04 07:43:22;;;;;;;0.68;0.50;;;13.00;99.90;;;;;;5054771;28;20025;-67
2022/07/04 07:45:49;;;;;;;1.05;0.95;;;13.00;99.90;;;;;;5055217;28;20025;-69
2022/07/04 07:48:16;;;;;;;1.58;0.38;;;12.90;99.90;;;;;;5053226;28;20048;-67
2022/07/04 07:50:43;;;;;;;1.92;0.75;;;12.90;99.90;;;;;;5053102;28;20480;-68
2022/07/04 07:53:10;;;;;;;1.08;0.40;;;12.90;99.90;;;;;;5054619;28;20475;-70
2022/07/04 07:55:37;;;;;;;0.90;0.50;;;12.90;99.90;;;;;;5057313;28;20025;-68
2022/07/04 07:58:04;;;;;;;1.15;0.45;;;12.80;99.90;;;;;;5037501;28;20120;-69
2022/07/04 08:00:32;;;;;;;2.00;1.38;;;12.80;99.90;;;;;;5051621;28;20033;-67
2022/07/04 08:05:58;;;;;;;2.30;0.50;;;12.80;99.90;;;;;;4953138;28;20568;-67
2022/07/04 08:08:25;;;;;;;1.15;0.40;;;12.70;99.90;;;;;;4968914;28;20125;-67
2022/07/04 08:10:52;;;;;;;0.32;0.30;;;12.80;99.90;;;;;;4954569;28;20198;-66
2022/07/04 08:13:19;;;;;;;1.08;0.32;;;12.70;99.90;;;;;;4953300;28;20129;-66
2022/07/04 08:15:47;;;;;;;1.80;0.40;;;12.70;99.90;;;;;;4954357;28;20446;-67
2022/07/04 08:18:16;;;;;;;1.17;0.43;;;12.70;99.90;;;;;;4955038;28;20560;-65
2022/07/04 08:20:43;;;;;;;1.13;0.40;;;12.60;99.90;;;;;;4954493;28;20356;-67
2022/07/04 08:23:10;;;;;;;1.23;0.40;;;12.60;99.90;;;;;;4954137;28;20090;-68
2022/07/04 08:25:37;;;;;;;0.85;0.45;;;12.60;99.90;;;;;;4953623;28;20031;-71
2022/07/04 08:28:05;;;;;;;1.55;0.50;;;12.60;99.90;;;;;;4953627;28;20478;-71
2022/07/04 08:30:32;;;;;;;3.08;0.50;;;12.60;99.90;;;;;;4953868;28;20137;-72
2022/07/04 08:32:59;;;;;;;1.50;0.80;;;12.50;99.90;;;;;;4958110;28;20279;-72
2022/07/04 08:35:27;;;;;;;1.27;0.68;;;12.60;99.90;;;;;;4948413;28;20388;-70
2022/07/04 08:37:55;;;;;;;0.52;0.45;;;12.50;99.90;;;;;;4956924;28;20453;-71
2022/07/04 08:40:23;;;;;;;0.80;0.52;;;12.60;99.90;;;;;;4958307;28;20924;-69
2022/07/04 08:42:51;;;;;;;0.60;0.60;;;12.50;99.90;;;;;;5056990;28;20475;-68
2022/07/04 08:45:29;;;;;;;2.20;0.70;;;12.50;99.90;;;;;;5054577;28;20029;-71
2022/07/04 08:48:07;;;;;;;0.50;0.50;;;12.50;99.90;;;;;;5057572;28;20027;-65
2022/07/04 08:50:35;;;;;;;0.77;0.50;;;12.50;99.90;;;;;;5055284;28;20628;-67
2022/07/04 08:53:06;;;;;;;0.82;0.50;;;12.50;99.90;;;;;;5059338;28;20467;-67
2022/07/04 08:58:26;;;;;;;6.43;1.17;;;12.50;99.90;;;;;;5059970;28;20067;-66
2022/07/04 09:00:55;;;;;;;1.58;0.77;;;12.50;99.90;;;;;;5055860;28;20029;-69
2022/07/04 09:03:23;;;;;;;1.35;0.60;;;12.50;99.90;;;;;;5059074;28;20235;-67
2022/07/04 09:05:51;;;;;;;2.63;0.60;;;12.50;99.90;;;;;;5057241;28;20036;-68
2022/07/04 09:08:18;;;;;;;1.02;0.70;;;12.50;99.90;;;;;;5054420;28;20024;-66
2022/07/04 09:10:45;;;;;;;2.78;0.40;;;12.60;99.90;;;;;;5057070;28;20117;-67
2022/07/04 09:13:19;;;;;;;1.75;0.65;;;12.60;99.90;;;;;;5058590;28;20289;-66
2022/07/04 09:15:49;;;;;;;0.30;0.30;;;12.60;99.90;;;;;;5058659;28;20396;-65
2022/07/04 09:18:36;;;;;;;0.82;0.55;;;12.60;99.90;;;;;;5059722;28;20109;-65
2022/07/04 09:21:09;;;;;;;1.45;0.52;;;12.60;99.90;;;;;;5043083;28;20098;-65
2022/07/04 09:23:43;;;;;;;0.98;0.65;;;12.70;99.90;;;;;;5053526;28;20428;-66
2022/07/04 09:26:22;;;;;;;1.70;0.50;;;12.60;99.90;;;;;;5052311;28;20037;-67
2022/07/04 09:28:56;;;;;;;1.00;0.50;;;12.70;99.90;;;;;;5051551;28;20108;-66
2022/07/04 09:31:28;;;;;;;0.93;0.40;;;12.70;99.90;;;;;;5056695;28;20041;-69
2022/07/04 09:34:00;;;;;;;2.53;0.50;;;12.70;99.90;;;;;;5055558;28;20040;-66
2022/07/04 09:36:32;;;;;;;1.63;0.60;;;12.70;99.90;;;;;;5054371;28;20024;-66
2022/07/04 09:39:14;;;;;;;1.10;0.50;;;12.70;99.90;;;;;;5056452;28;20450;-67
2022/07/04 09:42:04;;;;;;;1.50;0.50;;;12.70;99.90;;;;;;5054638;28;20123;-66
2022/07/04 09:44:51;;;;;;;1.27;0.60;;;12.70;99.90;;;;;;5052229;28;20274;-66
2022/07/04 09:47:24;;;;;;;1.70;0.50;;;12.70;99.90;;;;;;5054559;28;20430;-64
2022/07/04 09:50:07;;;;;;;1.17;0.40;;;12.80;99.90;;;;;;5054282;28;20143;-64
2022/07/04 09:52:58;;;;;;;0.57;0.45;;;12.70;99.90;;;;;;5052878;28;20036;-68
2022/07/04 09:55:31;;;;;;;1.42;0.60;;;12.70;99.90;;;;;;4964630;28;20026;-67
2022/07/04 09:58:01;;;;;;;1.85;0.68;;;12.70;99.90;;;;;;4962730;28;20039;-67
2022/07/04 10:00:34;;;;;;;0.82;0.40;;;12.70;99.90;;;;;;4963039;28;20353;-67
2022/07/04 10:03:37;;;;;;;0.88;0.68;;;12.80;99.90;;;;;;4963461;28;20405;-66
2022/07/04 10:06:07;;;;;;;2.53;1.10;;;12.70;99.90;;;;;;4922278;29;20058;-68
2022/07/04 10:08:35;;;;;;;1.73;0.70;;;12.70;99.90;;;;;;4919255;29;20151;-69
2022/07/04 10:11:03;;;;;;;1.10;0.55;;;12.70;99.90;;;;;;4924666;29;20023;-69
2022/07/04 10:13:31;;;;;;;2.70;0.95;;;12.70;99.90;;;;;;4923288;29;20047;-68
2022/07/04 10:15:59;;;;;;;1.23;1.08;;;12.80;99.90;;;;;;4922780;29;20032;-65
2022/07/04 10:18:27;;;;;;;1.17;0.98;;;12.70;99.90;;;;;;4922352;29;20181;-66
2022/07/04 10:20:56;;;;;;;1.23;1.13;;;12.70;99.90;;;;;;4923603;29;20071;-67
2022/07/04 10:23:30;;;;;;;1.40;1.10;;;12.70;99.90;;;;;;4923130;29;20550;-63
2022/07/04 10:25:58;;;;;;;1.10;0.80;;;12.80;99.90;;;;;;4922433;29;20047;-63
2022/07/04 10:28:25;;;;;;;0.52;0.50;;;12.80;99.90;;;;;;4922253;29;20027;-66
2022/07/04 10:30:58;;;;;;;1.23;0.70;;;12.80;99.90;;;;;;4923567;29;20531;-66
2022/07/04 10:33:28;;;;;;;0.65;0.50;;;12.80;99.90;;;;;;4978770;28;20089;-67
2022/07/04 10:35:58;;;;;;;2.42;1.08;;;12.80;99.90;;;;;;4640921;28;9999971;-67
2022/07/04 10:38:30;;;;;;;3.03;2.00;;;12.80;99.90;;;;;;4984456;28;20057;-66
2022/07/04 10:40:59;;;;;;;5.20;2.25;;;12.70;99.90;;;;;;5026394;28;20055;-64
2022/07/04 10:43:41;;;;;;;2.33;1.40;;;12.70;99.90;;;;;;5051670;28;20799;-67
2022/07/04 10:46:14;;;;;;;1.45;1.00;;;12.80;99.90;;;;;;5050352;28;20065;-65
2022/07/04 10:48:55;;;;;;;3.72;1.48;;;12.70;99.90;;;;;;5048829;28;20394;-67
2022/07/04 10:51:45;;;;;;;0.65;0.47;;;12.70;99.90;;;;;;5051017;28;20021;-65
2022/07/04 10:54:12;;;;;;;1.98;0.50;;;12.70;99.90;;;;;;5051925;28;20032;-66
2022/07/04 10:56:47;;;;;;;0.47;0.20;;;12.70;99.90;;;;;;5051085;28;20484;-64
2022/07/04 10:59:20;;;;;;;0.30;0.30;;;12.70;99.90;;;;;;5049245;28;20024;-66
2022/07/04 11:01:50;;;;;;;2.50;0.60;;;12.70;99.90;;;;;;5050530;28;20721;-65
2022/07/04 11:04:51;;;;;;;0.75;0.52;;;12.60;99.90;;;;;;5051295;28;20028;-68
2022/07/04 11:07:20;;;;;;;0.40;0.40;;;12.60;99.90;;;;;;5051859;28;20073;-67
2022/07/04 11:10:13;;;;;;;0.80;0.50;;;12.60;99.90;;;;;;5030593;28;20035;-68
2022/07/04 11:13:14;;;;;;;1.83;0.40;;;12.50;99.90;;;;;;5062574;28;20063;-67
2022/07/04 11:15:44;;;;;;;1.55;0.40;;;12.60;99.90;;;;;;4998255;28;20116;-67
2022/07/04 11:18:13;;;;;;;0.65;0.45;;;12.50;99.90;;;;;;5008542;28;20034;-66
2022/07/04 11:20:47;;;;;;;1.08;0.40;;;12.50;99.90;;;;;;5005105;28;20621;-65
2022/07/04 11:23:16;;;;;;;1.80;0.75;;;12.60;99.90;;;;;;5007477;28;20026;-65
2022/07/04 11:25:46;;;;;;;1.45;0.57;;;12.60;99.90;;;;;;5006110;28;20498;-65
2022/07/04 11:28:33;;;;;;;1.73;0.55;;;12.60;99.90;;;;;;5006377;28;20498;-63
2022/07/04 11:31:01;;;;;;;0.75;0.40;;;12.60;99.90;;;;;;5006650;28;20042;-66
2022/07/04 11:33:35;;;;;;;2.75;0.50;;;12.60;99.90;;;;;;5011363;28;20076;-63
2022/07/04 11:36:06;;;;;;;0.68;0.60;;;12.70;99.90;;;;;;5008506;28;20132;-66
2022/07/04 11:38:53;;;;;;;3.38;0.80;;;12.70;99.90;;;;;;5012370;28;20377;-64
2022/07/04 11:47:18;;;;;;;2.92;2.30;;;12.70;99.90;;;;;;5013462;28;20036;-63
2022/07/04 11:49:54;;;;;;;5.38;2.38;;;12.70;99.90;;;;;;5012913;28;20025;-66
2022/07/04 11:52:26;;;;;;;1.30;1.02;;;12.70;99.90;;;;;;5042458;28;20743;-64
2022/07/04 11:54:54;;;;;;;1.95;1.40;;;12.70;99.90;;;;;;5054507;28;20082;-65
2022/07/04 11:57:25;;;;;;;1.65;1.25;;;12.70;99.90;;;;;;5056225;28;20639;-66
2022/07/04 12:00:05;;;;;;;1.75;1.17;;;12.70;99.90;;;;;;5051883;28;20025;-64
2022/07/04 12:02:33;;;;;;;3.42;2.72;;;12.70;99.90;;;;;;5054344;28;20024;-64
2022/07/04 12:05:04;;;;;;;2.45;2.03;;;12.70;99.90;;;;;;5057913;28;20382;-66
2022/07/04 12:07:34;;;;;;;4.85;3.42;;;12.70;99.90;;;;;;5058728;28;20352;-66
2022/07/04 12:10:15;;;;;;;4.20;3.80;;;12.80;99.90;;;;;;5059476;28;20744;-64
2022/07/04 12:12:58;;;;;;;4.57;3.80;;;12.80;99.90;;;;;;5059679;28;20103;-65
2022/07/04 12:15:35;;;;;;;3.00;2.55;;;12.80;99.90;;;;;;5058469;28;20567;-63
2022/07/04 12:18:05;;;;;;;2.20;1.20;;;12.80;99.90;;;;;;5063511;28;20163;-64
2022/07/04 12:20:32;;;;;;;3.08;1.13;;;12.80;99.90;;;;;;5058592;28;20369;-66
2022/07/04 12:23:03;;;;;;;1.38;0.85;;;12.80;99.90;;;;;;5062381;28;20554;-66
2022/07/04 12:25:34;;;;;;;1.38;0.52;;;12.80;99.90;;;;;;5061064;28;20132;-66
2022/07/04 12:28:05;;;;;;;2.28;0.40;;;12.80;99.90;;;;;;5059020;28;20063;-65
2022/07/04 12:30:37;;;;;;;3.17;0.65;;;12.80;99.90;;;;;;5070759;28;20114;-64
2022/07/04 12:33:07;;;;;;;1.25;0.60;;;12.80;99.90;;;;;;5080911;28;20089;-65
2022/07/04 12:35:49;;;;;;;2.17;0.60;;;12.80;99.90;;;;;;5081243;28;20032;-67
2022/07/04 12:38:23;;;;;;;1.00;0.60;;;12.80;99.90;;;;;;5082096;28;20112;-67
2022/07/04 12:41:02;;;;;;;2.83;1.00;;;12.80;99.90;;;;;;5081303;28;20028;-64
2022/07/04 12:43:41;;;;;;;4.25;0.98;;;12.80;99.90;;;;;;5079605;28;20021;-64
2022/07/04 12:46:13;;;;;;;1.52;0.80;;;12.80;99.90;;;;;;5079965;28;20040;-67
2022/07/04 12:48:41;;;;;;;2.60;0.80;;;12.80;99.90;;;;;;5082347;28;20024;-64
2022/07/04 12:51:16;;;;;;;2.75;0.73;;;12.80;99.90;;;;;;5080927;28;20050;-64
2022/07/04 12:53:45;;;;;;;4.65;0.90;;;12.80;99.90;;;;;;5081277;28;20027;-67
2022/07/04 12:56:29;;;;;;;4.25;1.08;;;12.80;99.90;;;;;;5077746;28;20064;-67
2022/07/04 12:58:57;;;;;;;3.28;0.90;;;12.80;99.90;;;;;;5080680;28;20016;-67
2022/07/04 13:01:24;;;;;;;5.13;1.85;;;12.80;99.90;;;;;;5080054;28;20032;-68
2022/07/04 13:03:51;;;;;;;4.13;2.60;;;12.80;99.90;;;;;;5081094;28;20510;-67
2022/07/04 13:06:19;;;;;;;5.60;2.47;;;12.80;99.90;;;;;;5079877;28;21784;-65
2022/07/04 13:08:46;;;;;;;4.60;3.30;;;12.80;99.90;;;;;;5076926;28;20028;-65
2022/07/04 13:13:59;;;;;;;5.00;4.18;;;12.80;99.90;;;;;;5078629;28;20530;-67
2022/07/04 13:16:26;;;;;;;6.88;4.10;;;12.90;99.90;;;;;;5077667;28;20032;-65
2022/07/04 13:18:53;;;;;;;7.03;3.90;;;12.90;99.90;;;;;;5077322;28;20020;-66
2022/07/04 13:21:20;;;;;;;6.90;3.20;;;12.90;99.90;;;;;;5076754;28;20028;-68